Prázdniny jsou tady! Češi berou dovolené i poznávací zájezdy přes červencové státní svátky útokem

04.07.22 Školní rok úspěšně zakončený, volno v práci schválené a zavazadla připravená k odjezdu, aktuální realita v domácnostech tisíců Čechů, kteří se chystají hned na začátku léta na svou letní dovolenou. Čedok má jen v prvních dnech prázdnin naplánovaných 30 vlastních charterových letů, které jsou kompletně vyprodané. Celý článek

Muscat novinkou letošní zimy, Čedok spustí charterové lety do Ománu

28.06.22 Orientální i moderní architektura, hory, pláže a nádherné oázy, Muscat je další novou destinací, kterou Češi mohou prozkoumat během letošní zimní sezóny. Přímé charterové lety Čedoku zamíří poprvé z Letiště Václava Havla Praha do hlavního města Ománu od 24. října 2022. Klienti poletí na palubách letadel typu Boeing 737 MAX letecké společnosti Smartwings s odlety naplánovanými každé pondělí až do konce března příštího roku. Celý článek

Zprávy

aktualizováno

04.07.22 Celý článek

Všechny zprávy    

Všechny články

Zeptejte se odborníka

Zkušený personál jedné z největších leteckých škol Flying Academy je připraven Vám pomoci s jakýmikoli otázkami týkajícími se letectví.

Zeptejte se

Newsletter

Přihlaste se k odběru novinek.

Aktuální počasí

LKKB
LKKB 040800Z 35005KT 310V040 CAVOK 21/14 Q1019 NOSIG

LKKV
LKKV 040800Z VRB02KT CAVOK 20/11 Q1020

LKMT
LKMT 040800Z 22006KT 190V260 CAVOK 27/15 Q1018 NOSIG

LKPR
LKPR 040800Z 36004KT 9999 FEW026 20/14 Q1019 NOSIG

LKTB
LKTB 040800Z 18003KT 120V230 CAVOK 26/14 Q1018 NOSIG

Briefing

Kurzy měn

AUD AUD 16.75 Kč
EUR EUR 24.45 Kč
GBP GBP 29.30 Kč
HUF HUF 6.47 Kč
CHF CHF 24.14 Kč
USD USD 22.52 Kč